sensor_id;sensor_type;location;lat;lon;timestamp;P1;durP1;ratioP1;P2;durP2;ratioP2
60935;SDS011;46804;51.786;19.520;2023-01-25T00:00:03;38.13;;;18.45;;
60935;SDS011;46804;51.786;19.520;2023-01-25T00:04:05;47.20;;;16.63;;
60935;SDS011;46804;51.786;19.520;2023-01-25T00:08:05;47.60;;;18.30;;
60935;SDS011;46804;51.786;19.520;2023-01-25T00:12:06;43.88;;;18.00;;
60935;SDS011;46804;51.786;19.520;2023-01-25T00:16:07;45.13;;;18.70;;
60935;SDS011;46804;51.786;19.520;2023-01-25T00:20:08;40.22;;;17.33;;
60935;SDS011;46804;51.786;19.520;2023-01-25T00:24:10;44.47;;;17.70;;
60935;SDS011;46804;51.786;19.520;2023-01-25T00:28:13;41.47;;;17.80;;
60935;SDS011;46804;51.786;19.520;2023-01-25T00:40:36;36.78;;;15.32;;
60935;SDS011;46804;51.786;19.520;2023-01-25T00:44:37;40.33;;;17.10;;
60935;SDS011;46804;51.786;19.520;2023-01-25T00:48:38;40.25;;;15.20;;
60935;SDS011;46804;51.786;19.520;2023-01-25T00:52:39;45.65;;;17.73;;
60935;SDS011;46804;51.786;19.520;2023-01-25T00:56:40;31.65;;;14.75;;
60935;SDS011;46804;51.786;19.520;2023-01-25T01:00:41;35.65;;;15.23;;
60935;SDS011;46804;51.786;19.520;2023-01-25T01:04:41;39.35;;;15.10;;
60935;SDS011;46804;51.786;19.520;2023-01-25T01:08:42;30.75;;;13.63;;
60935;SDS011;46804;51.786;19.520;2023-01-25T01:12:43;35.75;;;13.80;;
60935;SDS011;46804;51.786;19.520;2023-01-25T01:16:43;40.20;;;13.95;;
60935;SDS011;46804;51.786;19.520;2023-01-25T01:20:51;31.50;;;12.40;;
60935;SDS011;46804;51.786;19.520;2023-01-25T01:24:52;44.10;;;16.08;;
60935;SDS011;46804;51.786;19.520;2023-01-25T01:28:53;29.27;;;13.65;;
60935;SDS011;46804;51.786;19.520;2023-01-25T01:32:53;32.78;;;12.52;;
60935;SDS011;46804;51.786;19.520;2023-01-25T01:36:54;31.63;;;14.15;;
60935;SDS011;46804;51.786;19.520;2023-01-25T01:40:55;32.28;;;13.05;;
60935;SDS011;46804;51.786;19.520;2023-01-25T01:44:55;27.75;;;13.50;;
60935;SDS011;46804;51.786;19.520;2023-01-25T01:53:02;23.15;;;9.50;;
60935;SDS011;46804;51.786;19.520;2023-01-25T01:57:07;16.17;;;7.03;;
60935;SDS011;46804;51.786;19.520;2023-01-25T02:01:09;20.25;;;9.25;;
60935;SDS011;46804;51.786;19.520;2023-01-25T02:05:11;20.40;;;9.50;;
60935;SDS011;46804;51.786;19.520;2023-01-25T02:09:25;20.88;;;8.25;;
60935;SDS011;46804;51.786;19.520;2023-01-25T02:17:32;12.50;;;6.60;;
60935;SDS011;46804;51.786;19.520;2023-01-25T02:21:37;13.07;;;5.97;;
60935;SDS011;46804;51.786;19.520;2023-01-25T02:25:40;13.45;;;6.78;;
60935;SDS011;46804;51.786;19.520;2023-01-25T02:29:41;18.25;;;7.38;;
60935;SDS011;46804;51.786;19.520;2023-01-25T02:33:42;13.07;;;6.47;;
60935;SDS011;46804;51.786;19.520;2023-01-25T02:37:43;15.73;;;7.03;;
60935;SDS011;46804;51.786;19.520;2023-01-25T02:41:45;15.18;;;8.20;;
60935;SDS011;46804;51.786;19.520;2023-01-25T02:49:49;12.45;;;6.20;;
60935;SDS011;46804;51.786;19.520;2023-01-25T02:53:50;12.90;;;6.22;;
60935;SDS011;46804;51.786;19.520;2023-01-25T02:57:50;14.02;;;6.97;;
60935;SDS011;46804;51.786;19.520;2023-01-25T03:01:51;10.15;;;5.40;;
60935;SDS011;46804;51.786;19.520;2023-01-25T03:05:52;11.23;;;5.47;;
60935;SDS011;46804;51.786;19.520;2023-01-25T03:09:53;9.73;;;5.15;;
60935;SDS011;46804;51.786;19.520;2023-01-25T03:13:53;11.40;;;5.50;;
60935;SDS011;46804;51.786;19.520;2023-01-25T03:17:54;13.18;;;5.93;;
60935;SDS011;46804;51.786;19.520;2023-01-25T03:21:56;14.07;;;6.28;;
60935;SDS011;46804;51.786;19.520;2023-01-25T03:26:05;13.25;;;7.07;;
60935;SDS011;46804;51.786;19.520;2023-01-25T03:30:07;9.65;;;5.47;;
60935;SDS011;46804;51.786;19.520;2023-01-25T03:34:09;13.88;;;5.70;;
60935;SDS011;46804;51.786;19.520;2023-01-25T03:38:10;9.48;;;5.68;;
60935;SDS011;46804;51.786;19.520;2023-01-25T03:42:10;12.35;;;6.10;;
60935;SDS011;46804;51.786;19.520;2023-01-25T03:46:11;9.23;;;5.28;;
60935;SDS011;46804;51.786;19.520;2023-01-25T03:50:12;9.48;;;5.63;;
60935;SDS011;46804;51.786;19.520;2023-01-25T03:54:13;10.20;;;6.22;;
60935;SDS011;46804;51.786;19.520;2023-01-25T03:58:13;9.95;;;5.55;;
60935;SDS011;46804;51.786;19.520;2023-01-25T04:02:14;14.65;;;6.47;;
60935;SDS011;46804;51.786;19.520;2023-01-25T04:06:14;11.15;;;6.25;;
60935;SDS011;46804;51.786;19.520;2023-01-25T04:10:15;10.73;;;6.32;;
60935;SDS011;46804;51.786;19.520;2023-01-25T04:14:16;12.32;;;5.95;;
60935;SDS011;46804;51.786;19.520;2023-01-25T04:18:17;11.85;;;5.72;;
60935;SDS011;46804;51.786;19.520;2023-01-25T04:22:18;16.30;;;7.43;;
60935;SDS011;46804;51.786;19.520;2023-01-25T04:26:19;9.88;;;5.78;;
60935;SDS011;46804;51.786;19.520;2023-01-25T04:30:19;11.73;;;6.97;;
60935;SDS011;46804;51.786;19.520;2023-01-25T04:34:20;11.73;;;6.90;;
60935;SDS011;46804;51.786;19.520;2023-01-25T04:38:21;13.90;;;6.85;;
60935;SDS011;46804;51.786;19.520;2023-01-25T04:42:22;17.20;;;7.07;;
60935;SDS011;46804;51.786;19.520;2023-01-25T04:46:23;12.77;;;6.93;;
60935;SDS011;46804;51.786;19.520;2023-01-25T04:50:24;12.10;;;6.25;;
60935;SDS011;46804;51.786;19.520;2023-01-25T04:54:25;14.00;;;7.57;;
60935;SDS011;46804;51.786;19.520;2023-01-25T04:58:25;13.27;;;7.05;;
60935;SDS011;46804;51.786;19.520;2023-01-25T05:02:26;12.07;;;6.18;;
60935;SDS011;46804;51.786;19.520;2023-01-25T05:06:27;12.45;;;6.57;;
60935;SDS011;46804;51.786;19.520;2023-01-25T05:10:27;13.00;;;7.20;;
60935;SDS011;46804;51.786;19.520;2023-01-25T05:14:28;14.02;;;6.68;;
60935;SDS011;46804;51.786;19.520;2023-01-25T05:18:29;14.68;;;7.65;;
60935;SDS011;46804;51.786;19.520;2023-01-25T05:22:29;11.93;;;6.65;;
60935;SDS011;46804;51.786;19.520;2023-01-25T05:26:30;12.48;;;7.35;;
60935;SDS011;46804;51.786;19.520;2023-01-25T05:30:49;16.83;;;7.97;;
60935;SDS011;46804;51.786;19.520;2023-01-25T05:34:50;15.63;;;7.75;;
60935;SDS011;46804;51.786;19.520;2023-01-25T05:38:51;14.75;;;7.28;;
60935;SDS011;46804;51.786;19.520;2023-01-25T05:42:53;14.15;;;7.65;;
60935;SDS011;46804;51.786;19.520;2023-01-25T05:46:57;14.02;;;7.25;;
60935;SDS011;46804;51.786;19.520;2023-01-25T05:50:57;18.17;;;8.27;;
60935;SDS011;46804;51.786;19.520;2023-01-25T05:54:58;17.17;;;7.28;;
60935;SDS011;46804;51.786;19.520;2023-01-25T05:59:00;21.25;;;8.43;;
60935;SDS011;46804;51.786;19.520;2023-01-25T06:03:01;13.70;;;8.82;;
60935;SDS011;46804;51.786;19.520;2023-01-25T06:07:02;16.35;;;7.82;;
60935;SDS011;46804;51.786;19.520;2023-01-25T06:11:06;18.88;;;8.35;;
60935;SDS011;46804;51.786;19.520;2023-01-25T06:15:08;15.93;;;8.73;;
60935;SDS011;46804;51.786;19.520;2023-01-25T06:19:11;19.25;;;8.63;;
60935;SDS011;46804;51.786;19.520;2023-01-25T06:27:13;13.77;;;6.88;;
60935;SDS011;46804;51.786;19.520;2023-01-25T06:31:15;10.80;;;5.95;;
60935;SDS011;46804;51.786;19.520;2023-01-25T06:35:17;12.87;;;7.10;;
60935;SDS011;46804;51.786;19.520;2023-01-25T06:39:17;18.83;;;7.93;;
60935;SDS011;46804;51.786;19.520;2023-01-25T06:43:18;11.88;;;6.50;;
60935;SDS011;46804;51.786;19.520;2023-01-25T06:47:19;12.77;;;5.63;;
60935;SDS011;46804;51.786;19.520;2023-01-25T06:51:19;10.63;;;5.30;;
60935;SDS011;46804;51.786;19.520;2023-01-25T06:55:20;10.23;;;5.60;;
60935;SDS011;46804;51.786;19.520;2023-01-25T06:59:21;9.05;;;5.28;;
60935;SDS011;46804;51.786;19.520;2023-01-25T07:03:22;8.73;;;5.03;;
60935;SDS011;46804;51.786;19.520;2023-01-25T07:07:23;11.18;;;5.30;;
60935;SDS011;46804;51.786;19.520;2023-01-25T07:11:24;10.32;;;5.60;;
60935;SDS011;46804;51.786;19.520;2023-01-25T07:15:24;10.07;;;5.05;;
60935;SDS011;46804;51.786;19.520;2023-01-25T07:19:25;11.02;;;5.30;;
60935;SDS011;46804;51.786;19.520;2023-01-25T07:23:26;7.30;;;4.60;;
60935;SDS011;46804;51.786;19.520;2023-01-25T07:27:26;10.80;;;5.22;;
60935;SDS011;46804;51.786;19.520;2023-01-25T07:31:27;8.95;;;4.05;;
60935;SDS011;46804;51.786;19.520;2023-01-25T07:35:28;7.40;;;4.05;;
60935;SDS011;46804;51.786;19.520;2023-01-25T07:39:31;9.67;;;3.83;;
60935;SDS011;46804;51.786;19.520;2023-01-25T07:43:32;8.75;;;4.55;;
60935;SDS011;46804;51.786;19.520;2023-01-25T07:47:32;10.05;;;4.18;;
60935;SDS011;46804;51.786;19.520;2023-01-25T07:51:33;10.13;;;5.43;;
60935;SDS011;46804;51.786;19.520;2023-01-25T07:55:34;8.60;;;4.75;;
60935;SDS011;46804;51.786;19.520;2023-01-25T07:59:35;11.95;;;4.93;;
60935;SDS011;46804;51.786;19.520;2023-01-25T08:03:35;9.75;;;5.32;;
60935;SDS011;46804;51.786;19.520;2023-01-25T08:07:36;8.65;;;5.00;;
60935;SDS011;46804;51.786;19.520;2023-01-25T08:11:37;10.98;;;4.78;;
60935;SDS011;46804;51.786;19.520;2023-01-25T08:15:38;8.32;;;4.43;;
60935;SDS011;46804;51.786;19.520;2023-01-25T08:19:39;8.77;;;4.70;;
60935;SDS011;46804;51.786;19.520;2023-01-25T08:23:40;9.20;;;4.30;;
60935;SDS011;46804;51.786;19.520;2023-01-25T08:27:41;8.40;;;4.57;;
60935;SDS011;46804;51.786;19.520;2023-01-25T08:31:42;8.85;;;5.28;;
60935;SDS011;46804;51.786;19.520;2023-01-25T08:35:55;11.40;;;4.60;;
60935;SDS011;46804;51.786;19.520;2023-01-25T08:39:56;7.85;;;4.30;;
60935;SDS011;46804;51.786;19.520;2023-01-25T08:43:59;10.52;;;4.90;;
60935;SDS011;46804;51.786;19.520;2023-01-25T08:47:59;15.00;;;6.05;;
60935;SDS011;46804;51.786;19.520;2023-01-25T08:52:00;16.60;;;8.38;;
60935;SDS011;46804;51.786;19.520;2023-01-25T08:56:11;32.05;;;13.50;;
60935;SDS011;46804;51.786;19.520;2023-01-25T09:00:13;16.15;;;8.30;;
60935;SDS011;46804;51.786;19.520;2023-01-25T09:04:14;11.15;;;5.53;;
60935;SDS011;46804;51.786;19.520;2023-01-25T09:08:15;7.18;;;4.05;;
60935;SDS011;46804;51.786;19.520;2023-01-25T09:12:15;8.88;;;4.57;;
60935;SDS011;46804;51.786;19.520;2023-01-25T09:16:17;7.38;;;4.47;;
60935;SDS011;46804;51.786;19.520;2023-01-25T09:20:22;13.82;;;6.63;;
60935;SDS011;46804;51.786;19.520;2023-01-25T09:24:23;13.13;;;6.78;;
60935;SDS011;46804;51.786;19.520;2023-01-25T09:28:24;11.20;;;5.97;;
60935;SDS011;46804;51.786;19.520;2023-01-25T09:32:25;11.38;;;5.88;;
60935;SDS011;46804;51.786;19.520;2023-01-25T09:36:26;11.02;;;4.93;;
60935;SDS011;46804;51.786;19.520;2023-01-25T09:40:27;12.23;;;5.70;;
60935;SDS011;46804;51.786;19.520;2023-01-25T09:49:01;14.80;;;6.53;;
60935;SDS011;46804;51.786;19.520;2023-01-25T09:53:18;11.02;;;5.72;;
60935;SDS011;46804;51.786;19.520;2023-01-25T10:01:37;11.15;;;5.57;;
60935;SDS011;46804;51.786;19.520;2023-01-25T10:05:49;12.23;;;6.28;;
60935;SDS011;46804;51.786;19.520;2023-01-25T10:14:17;13.82;;;6.70;;
60935;SDS011;46804;51.786;19.520;2023-01-25T10:22:34;14.00;;;6.40;;
60935;SDS011;46804;51.786;19.520;2023-01-25T10:26:39;13.85;;;6.57;;
60935;SDS011;46804;51.786;19.520;2023-01-25T10:31:00;11.05;;;5.47;;
60935;SDS011;46804;51.786;19.520;2023-01-25T10:35:16;14.15;;;6.60;;
60935;SDS011;46804;51.786;19.520;2023-01-25T10:39:20;10.15;;;5.70;;
60935;SDS011;46804;51.786;19.520;2023-01-25T10:43:21;9.55;;;4.90;;
60935;SDS011;46804;51.786;19.520;2023-01-25T10:47:22;13.00;;;5.60;;
60935;SDS011;46804;51.786;19.520;2023-01-25T10:51:28;9.32;;;5.18;;
60935;SDS011;46804;51.786;19.520;2023-01-25T10:55:30;9.10;;;5.82;;
60935;SDS011;46804;51.786;19.520;2023-01-25T10:59:31;9.18;;;5.40;;
60935;SDS011;46804;51.786;19.520;2023-01-25T11:07:40;9.10;;;5.57;;
60935;SDS011;46804;51.786;19.520;2023-01-25T11:11:41;14.52;;;6.00;;
60935;SDS011;46804;51.786;19.520;2023-01-25T11:15:42;10.65;;;5.63;;
60935;SDS011;46804;51.786;19.520;2023-01-25T11:19:44;13.98;;;6.45;;
60935;SDS011;46804;51.786;19.520;2023-01-25T11:28:14;13.55;;;6.40;;
60935;SDS011;46804;51.786;19.520;2023-01-25T11:32:18;12.68;;;6.22;;
60935;SDS011;46804;51.786;19.520;2023-01-25T11:36:30;12.05;;;5.47;;
60935;SDS011;46804;51.786;19.520;2023-01-25T11:40:48;13.13;;;7.05;;
60935;SDS011;46804;51.786;19.520;2023-01-25T11:45:15;12.57;;;6.82;;
60935;SDS011;46804;51.786;19.520;2023-01-25T11:54:22;15.25;;;7.65;;
60935;SDS011;46804;51.786;19.520;2023-01-25T11:58:46;13.35;;;7.20;;
60935;SDS011;46804;51.786;19.520;2023-01-25T12:16:09;12.70;;;7.38;;
60935;SDS011;46804;51.786;19.520;2023-01-25T12:28:43;13.20;;;6.25;;
60935;SDS011;46804;51.786;19.520;2023-01-25T12:32:50;13.52;;;6.97;;
60935;SDS011;46804;51.786;19.520;2023-01-25T12:36:55;12.65;;;6.35;;
60935;SDS011;46804;51.786;19.520;2023-01-25T12:41:05;18.45;;;7.95;;
60935;SDS011;46804;51.786;19.520;2023-01-25T12:45:21;14.75;;;7.85;;
60935;SDS011;46804;51.786;19.520;2023-01-25T12:49:27;15.00;;;7.85;;
60935;SDS011;46804;51.786;19.520;2023-01-25T12:53:40;15.98;;;7.78;;
60935;SDS011;46804;51.786;19.520;2023-01-25T12:57:57;17.30;;;7.82;;
60935;SDS011;46804;51.786;19.520;2023-01-25T13:06:33;13.68;;;7.35;;
60935;SDS011;46804;51.786;19.520;2023-01-25T13:10:44;16.05;;;6.80;;
60935;SDS011;46804;51.786;19.520;2023-01-25T13:14:49;10.35;;;5.85;;
60935;SDS011;46804;51.786;19.520;2023-01-25T13:18:50;13.13;;;5.05;;
60935;SDS011;46804;51.786;19.520;2023-01-25T13:22:52;10.60;;;5.80;;
60935;SDS011;46804;51.786;19.520;2023-01-25T13:30:54;13.13;;;6.43;;
60935;SDS011;46804;51.786;19.520;2023-01-25T13:34:56;13.93;;;6.18;;
60935;SDS011;46804;51.786;19.520;2023-01-25T13:38:58;13.20;;;6.67;;
60935;SDS011;46804;51.786;19.520;2023-01-25T13:43:20;15.10;;;7.28;;
60935;SDS011;46804;51.786;19.520;2023-01-25T13:47:23;13.73;;;6.55;;
60935;SDS011;46804;51.786;19.520;2023-01-25T13:51:28;7.07;;;4.93;;
60935;SDS011;46804;51.786;19.520;2023-01-25T13:55:40;13.73;;;6.45;;
60935;SDS011;46804;51.786;19.520;2023-01-25T13:59:47;14.40;;;6.05;;
60935;SDS011;46804;51.786;19.520;2023-01-25T14:04:00;9.95;;;5.75;;
60935;SDS011;46804;51.786;19.520;2023-01-25T14:08:03;11.13;;;6.32;;
60935;SDS011;46804;51.786;19.520;2023-01-25T14:12:04;13.38;;;6.20;;
60935;SDS011;46804;51.786;19.520;2023-01-25T14:16:10;11.70;;;6.80;;
60935;SDS011;46804;51.786;19.520;2023-01-25T14:20:19;12.27;;;6.53;;
60935;SDS011;46804;51.786;19.520;2023-01-25T14:24:21;12.48;;;6.22;;
60935;SDS011;46804;51.786;19.520;2023-01-25T14:28:22;14.18;;;6.60;;
60935;SDS011;46804;51.786;19.520;2023-01-25T14:32:23;14.27;;;8.00;;
60935;SDS011;46804;51.786;19.520;2023-01-25T14:36:28;13.97;;;7.10;;
60935;SDS011;46804;51.786;19.520;2023-01-25T14:40:30;12.93;;;6.45;;
60935;SDS011;46804;51.786;19.520;2023-01-25T14:44:31;16.38;;;8.32;;
60935;SDS011;46804;51.786;19.520;2023-01-25T14:48:39;17.58;;;8.35;;
60935;SDS011;46804;51.786;19.520;2023-01-25T14:52:40;14.35;;;7.82;;
60935;SDS011;46804;51.786;19.520;2023-01-25T14:56:42;15.73;;;8.63;;
60935;SDS011;46804;51.786;19.520;2023-01-25T15:00:55;17.52;;;7.85;;
60935;SDS011;46804;51.786;19.520;2023-01-25T15:13:33;15.10;;;6.65;;
60935;SDS011;46804;51.786;19.520;2023-01-25T15:17:34;11.13;;;5.93;;
60935;SDS011;46804;51.786;19.520;2023-01-25T15:21:43;12.93;;;6.60;;
60935;SDS011;46804;51.786;19.520;2023-01-25T15:25:47;13.13;;;6.82;;
60935;SDS011;46804;51.786;19.520;2023-01-25T15:29:55;19.48;;;8.65;;
60935;SDS011;46804;51.786;19.520;2023-01-25T15:33:56;15.70;;;7.18;;
60935;SDS011;46804;51.786;19.520;2023-01-25T15:37:57;14.00;;;7.32;;
60935;SDS011;46804;51.786;19.520;2023-01-25T15:41:58;17.02;;;9.18;;
60935;SDS011;46804;51.786;19.520;2023-01-25T15:45:59;13.43;;;7.38;;
60935;SDS011;46804;51.786;19.520;2023-01-25T15:49:59;24.38;;;10.70;;
60935;SDS011;46804;51.786;19.520;2023-01-25T15:54:00;14.43;;;8.02;;
60935;SDS011;46804;51.786;19.520;2023-01-25T15:58:01;15.68;;;8.48;;
60935;SDS011;46804;51.786;19.520;2023-01-25T16:02:04;17.42;;;9.98;;
60935;SDS011;46804;51.786;19.520;2023-01-25T16:10:37;18.02;;;9.82;;
60935;SDS011;46804;51.786;19.520;2023-01-25T16:14:38;16.52;;;9.27;;
60935;SDS011;46804;51.786;19.520;2023-01-25T16:18:38;20.73;;;10.55;;
60935;SDS011;46804;51.786;19.520;2023-01-25T16:22:39;23.08;;;11.30;;
60935;SDS011;46804;51.786;19.520;2023-01-25T16:26:43;16.73;;;7.85;;
60935;SDS011;46804;51.786;19.520;2023-01-25T16:30:47;15.13;;;7.68;;
60935;SDS011;46804;51.786;19.520;2023-01-25T16:34:49;16.00;;;7.22;;
60935;SDS011;46804;51.786;19.520;2023-01-25T16:38:49;22.10;;;8.57;;
60935;SDS011;46804;51.786;19.520;2023-01-25T16:42:50;33.45;;;11.65;;
60935;SDS011;46804;51.786;19.520;2023-01-25T16:46:51;43.60;;;16.30;;
60935;SDS011;46804;51.786;19.520;2023-01-25T16:50:52;27.23;;;13.43;;
60935;SDS011;46804;51.786;19.520;2023-01-25T16:54:53;21.75;;;10.85;;
60935;SDS011;46804;51.786;19.520;2023-01-25T16:58:54;23.52;;;10.15;;
60935;SDS011;46804;51.786;19.520;2023-01-25T17:02:57;19.42;;;10.43;;
60935;SDS011;46804;51.786;19.520;2023-01-25T17:06:57;19.20;;;9.38;;
60935;SDS011;46804;51.786;19.520;2023-01-25T17:11:05;13.88;;;8.50;;
60935;SDS011;46804;51.786;19.520;2023-01-25T17:15:06;18.23;;;9.27;;
60935;SDS011;46804;51.786;19.520;2023-01-25T17:19:09;19.05;;;9.18;;
60935;SDS011;46804;51.786;19.520;2023-01-25T17:23:12;56.05;;;21.77;;
60935;SDS011;46804;51.786;19.520;2023-01-25T17:27:13;38.33;;;14.40;;
60935;SDS011;46804;51.786;19.520;2023-01-25T17:31:20;25.27;;;11.50;;
60935;SDS011;46804;51.786;19.520;2023-01-25T17:35:22;34.45;;;13.75;;
60935;SDS011;46804;51.786;19.520;2023-01-25T17:39:22;55.00;;;19.35;;
60935;SDS011;46804;51.786;19.520;2023-01-25T17:43:24;81.63;;;29.05;;
60935;SDS011;46804;51.786;19.520;2023-01-25T17:47:25;47.05;;;22.83;;
60935;SDS011;46804;51.786;19.520;2023-01-25T17:51:26;36.38;;;16.52;;
60935;SDS011;46804;51.786;19.520;2023-01-25T17:55:27;53.92;;;17.75;;
60935;SDS011;46804;51.786;19.520;2023-01-25T17:59:27;65.07;;;22.95;;
60935;SDS011;46804;51.786;19.520;2023-01-25T18:03:28;30.00;;;13.00;;
60935;SDS011;46804;51.786;19.520;2023-01-25T18:07:29;27.23;;;11.93;;
60935;SDS011;46804;51.786;19.520;2023-01-25T18:11:31;26.08;;;12.43;;
60935;SDS011;46804;51.786;19.520;2023-01-25T18:15:33;51.65;;;20.67;;
60935;SDS011;46804;51.786;19.520;2023-01-25T18:19:34;67.78;;;24.25;;
60935;SDS011;46804;51.786;19.520;2023-01-25T18:23:35;55.45;;;21.77;;
60935;SDS011;46804;51.786;19.520;2023-01-25T18:27:37;67.85;;;26.88;;
60935;SDS011;46804;51.786;19.520;2023-01-25T18:31:38;47.30;;;20.83;;
60935;SDS011;46804;51.786;19.520;2023-01-25T18:35:38;51.75;;;20.35;;
60935;SDS011;46804;51.786;19.520;2023-01-25T18:39:39;51.22;;;19.27;;
60935;SDS011;46804;51.786;19.520;2023-01-25T18:43:40;55.42;;;21.25;;
60935;SDS011;46804;51.786;19.520;2023-01-25T18:47:41;40.67;;;16.45;;
60935;SDS011;46804;51.786;19.520;2023-01-25T18:51:43;33.75;;;14.63;;
60935;SDS011;46804;51.786;19.520;2023-01-25T18:55:44;35.08;;;13.65;;
60935;SDS011;46804;51.786;19.520;2023-01-25T18:59:57;30.13;;;12.85;;
60935;SDS011;46804;51.786;19.520;2023-01-25T19:03:58;32.15;;;14.00;;
60935;SDS011;46804;51.786;19.520;2023-01-25T19:07:59;41.63;;;16.63;;
60935;SDS011;46804;51.786;19.520;2023-01-25T19:11:59;41.05;;;18.63;;
60935;SDS011;46804;51.786;19.520;2023-01-25T19:16:07;56.92;;;20.50;;
60935;SDS011;46804;51.786;19.520;2023-01-25T19:20:11;45.10;;;20.10;;
60935;SDS011;46804;51.786;19.520;2023-01-25T19:24:13;34.03;;;15.18;;
60935;SDS011;46804;51.786;19.520;2023-01-25T19:28:15;52.90;;;23.35;;
60935;SDS011;46804;51.786;19.520;2023-01-25T19:32:16;50.83;;;22.88;;
60935;SDS011;46804;51.786;19.520;2023-01-25T19:36:17;36.55;;;16.67;;
60935;SDS011;46804;51.786;19.520;2023-01-25T19:40:18;36.13;;;15.27;;
60935;SDS011;46804;51.786;19.520;2023-01-25T19:44:19;32.45;;;15.20;;
60935;SDS011;46804;51.786;19.520;2023-01-25T19:48:20;32.70;;;14.65;;
60935;SDS011;46804;51.786;19.520;2023-01-25T19:52:20;41.72;;;14.77;;
60935;SDS011;46804;51.786;19.520;2023-01-25T19:56:21;54.90;;;21.63;;
60935;SDS011;46804;51.786;19.520;2023-01-25T20:00:22;58.17;;;22.58;;
60935;SDS011;46804;51.786;19.520;2023-01-25T20:04:24;72.45;;;28.65;;
60935;SDS011;46804;51.786;19.520;2023-01-25T20:08:35;38.90;;;16.70;;
60935;SDS011;46804;51.786;19.520;2023-01-25T20:12:40;43.80;;;20.17;;
60935;SDS011;46804;51.786;19.520;2023-01-25T20:16:40;55.75;;;25.75;;
60935;SDS011;46804;51.786;19.520;2023-01-25T20:20:42;36.88;;;16.17;;
60935;SDS011;46804;51.786;19.520;2023-01-25T20:24:42;43.35;;;18.08;;
60935;SDS011;46804;51.786;19.520;2023-01-25T20:28:44;45.45;;;18.02;;
60935;SDS011;46804;51.786;19.520;2023-01-25T20:32:46;41.90;;;17.83;;
60935;SDS011;46804;51.786;19.520;2023-01-25T20:36:47;66.75;;;24.52;;
60935;SDS011;46804;51.786;19.520;2023-01-25T20:40:49;51.72;;;19.35;;
60935;SDS011;46804;51.786;19.520;2023-01-25T20:44:50;53.70;;;20.95;;
60935;SDS011;46804;51.786;19.520;2023-01-25T20:48:51;50.40;;;18.33;;
60935;SDS011;46804;51.786;19.520;2023-01-25T20:52:52;43.72;;;20.15;;
60935;SDS011;46804;51.786;19.520;2023-01-25T20:56:53;45.65;;;19.13;;
60935;SDS011;46804;51.786;19.520;2023-01-25T21:00:54;41.97;;;17.60;;
60935;SDS011;46804;51.786;19.520;2023-01-25T21:04:55;41.58;;;17.70;;
60935;SDS011;46804;51.786;19.520;2023-01-25T21:08:55;52.55;;;20.48;;
60935;SDS011;46804;51.786;19.520;2023-01-25T21:12:58;50.43;;;17.60;;
60935;SDS011;46804;51.786;19.520;2023-01-25T21:16:59;48.80;;;17.75;;
60935;SDS011;46804;51.786;19.520;2023-01-25T21:21:03;39.42;;;16.25;;
60935;SDS011;46804;51.786;19.520;2023-01-25T21:25:09;47.70;;;15.55;;
60935;SDS011;46804;51.786;19.520;2023-01-25T21:29:12;38.30;;;15.27;;
60935;SDS011;46804;51.786;19.520;2023-01-25T21:33:12;33.10;;;14.40;;
60935;SDS011;46804;51.786;19.520;2023-01-25T21:37:13;35.95;;;14.18;;
60935;SDS011;46804;51.786;19.520;2023-01-25T21:41:15;33.80;;;14.23;;
60935;SDS011;46804;51.786;19.520;2023-01-25T21:45:19;36.58;;;15.60;;
60935;SDS011;46804;51.786;19.520;2023-01-25T21:49:38;43.83;;;16.88;;
60935;SDS011;46804;51.786;19.520;2023-01-25T21:53:57;40.60;;;15.43;;
60935;SDS011;46804;51.786;19.520;2023-01-25T21:57:58;36.60;;;14.63;;
60935;SDS011;46804;51.786;19.520;2023-01-25T22:01:58;40.30;;;16.40;;
60935;SDS011;46804;51.786;19.520;2023-01-25T22:05:59;41.35;;;18.45;;
60935;SDS011;46804;51.786;19.520;2023-01-25T22:10:00;48.10;;;17.38;;
60935;SDS011;46804;51.786;19.520;2023-01-25T22:14:01;26.20;;;11.90;;
60935;SDS011;46804;51.786;19.520;2023-01-25T22:18:01;34.25;;;10.35;;
60935;SDS011;46804;51.786;19.520;2023-01-25T22:22:02;26.00;;;13.23;;
60935;SDS011;46804;51.786;19.520;2023-01-25T22:26:04;33.95;;;13.18;;
60935;SDS011;46804;51.786;19.520;2023-01-25T22:30:07;20.63;;;10.18;;
60935;SDS011;46804;51.786;19.520;2023-01-25T22:34:09;25.33;;;11.60;;
60935;SDS011;46804;51.786;19.520;2023-01-25T22:38:10;24.02;;;11.32;;
60935;SDS011;46804;51.786;19.520;2023-01-25T22:42:11;28.83;;;11.77;;
60935;SDS011;46804;51.786;19.520;2023-01-25T22:46:13;27.25;;;11.50;;
60935;SDS011;46804;51.786;19.520;2023-01-25T22:50:15;23.17;;;8.57;;
60935;SDS011;46804;51.786;19.520;2023-01-25T22:54:16;20.35;;;9.48;;
60935;SDS011;46804;51.786;19.520;2023-01-25T22:58:17;22.60;;;10.52;;
60935;SDS011;46804;51.786;19.520;2023-01-25T23:02:17;25.48;;;12.82;;
60935;SDS011;46804;51.786;19.520;2023-01-25T23:06:22;25.48;;;10.57;;
60935;SDS011;46804;51.786;19.520;2023-01-25T23:10:24;29.70;;;10.27;;
60935;SDS011;46804;51.786;19.520;2023-01-25T23:14:25;21.45;;;10.82;;
60935;SDS011;46804;51.786;19.520;2023-01-25T23:18:44;22.52;;;10.93;;
60935;SDS011;46804;51.786;19.520;2023-01-25T23:22:51;17.50;;;9.30;;
60935;SDS011;46804;51.786;19.520;2023-01-25T23:26:51;20.67;;;9.85;;
60935;SDS011;46804;51.786;19.520;2023-01-25T23:30:52;21.33;;;9.18;;
60935;SDS011;46804;51.786;19.520;2023-01-25T23:35:11;27.33;;;10.88;;
60935;SDS011;46804;51.786;19.520;2023-01-25T23:39:12;23.02;;;10.00;;
60935;SDS011;46804;51.786;19.520;2023-01-25T23:43:13;25.52;;;12.88;;
60935;SDS011;46804;51.786;19.520;2023-01-25T23:47:13;22.80;;;10.07;;
60935;SDS011;46804;51.786;19.520;2023-01-25T23:51:14;21.88;;;9.75;;
60935;SDS011;46804;51.786;19.520;2023-01-25T23:55:16;30.92;;;13.20;;
60935;SDS011;46804;51.786;19.520;2023-01-25T23:59:16;26.05;;;11.27;;
